createdAt,value
2022-10-21T00:00:01.080Z,8.2
2022-10-21T00:01:04.798Z,8.2
2022-10-21T00:02:01.768Z,8.3
2022-10-21T00:03:01.112Z,8.3
2022-10-21T00:04:01.082Z,8.3
2022-10-21T00:05:01.467Z,8.3
2022-10-21T00:06:07.632Z,8.3
2022-10-21T00:07:01.102Z,8.3
2022-10-21T00:08:01.123Z,8.3
2022-10-21T00:09:01.499Z,8.3
2022-10-21T00:10:01.134Z,8.3
2022-10-21T00:11:10.599Z,8.2
2022-10-21T00:12:01.366Z,8.2
2022-10-21T00:13:02.067Z,8.2
2022-10-21T00:14:01.093Z,8.2
2022-10-21T00:15:00.743Z,8.2
2022-10-21T00:16:13.419Z,8.3
2022-10-21T00:17:01.074Z,8.3
2022-10-21T00:18:01.087Z,8.3
2022-10-21T00:19:01.072Z,8.3
2022-10-21T00:20:01.056Z,8.3
2022-10-21T00:21:16.844Z,8.3
2022-10-21T00:22:02.318Z,8.3
2022-10-21T00:23:01.505Z,8.3
2022-10-21T00:24:01.181Z,8.3
2022-10-21T00:25:01.270Z,8.3
2022-10-21T00:26:01.127Z,8.3
2022-10-21T00:27:01.146Z,8.3
2022-10-21T00:28:01.537Z,8.3
2022-10-21T00:29:01.573Z,8.3
2022-10-21T00:30:01.198Z,8.3
2022-10-21T00:31:01.190Z,8.3
2022-10-21T00:32:01.193Z,8.3
2022-10-21T00:33:03.107Z,8.3
2022-10-21T00:34:01.466Z,8.3
2022-10-21T00:35:02.205Z,8.3
2022-10-21T00:36:01.204Z,8.3
2022-10-21T00:37:01.115Z,8.3
2022-10-21T00:38:01.105Z,8.3
2022-10-21T00:39:01.110Z,8.3
2022-10-21T00:40:01.120Z,8.3
2022-10-21T00:41:01.106Z,8.3
2022-10-21T00:42:01.133Z,8.3
2022-10-21T00:43:01.955Z,8.3
2022-10-21T00:44:01.528Z,8.3
2022-10-21T00:45:01.220Z,8.3
2022-10-21T00:46:01.151Z,8.3
2022-10-21T00:47:01.171Z,8.3
2022-10-21T00:48:01.062Z,8.4
2022-10-21T00:49:01.173Z,8.4
2022-10-21T00:50:01.076Z,8.4
2022-10-21T00:51:01.086Z,8.4
2022-10-21T00:52:01.401Z,8.4
2022-10-21T00:53:01.395Z,8.5
2022-10-21T00:54:02.285Z,8.5
2022-10-21T00:55:02.109Z,8.5
2022-10-21T00:56:01.119Z,8.5
2022-10-21T00:57:01.108Z,8.4
2022-10-21T00:58:01.045Z,8.5
2022-10-21T00:59:01.051Z,8.5
2022-10-21T01:00:01.137Z,8.5
2022-10-21T01:01:01.163Z,8.5
2022-10-21T01:02:01.902Z,8.5
2022-10-21T01:03:00.643Z,8.5
2022-10-21T01:04:00.227Z,8.5
2022-10-21T01:04:59.919Z,8.5
2022-10-21T01:05:59.531Z,8.5
2022-10-21T01:07:01.119Z,8.5
2022-10-21T01:08:01.110Z,8.5
2022-10-21T01:09:01.201Z,8.5
2022-10-21T01:10:01.870Z,8.5
2022-10-21T01:11:01.105Z,8.5
2022-10-21T01:12:01.525Z,8.5
2022-10-21T01:13:02.208Z,8.5
2022-10-21T01:14:02.102Z,8.6
2022-10-21T01:16:01.146Z,8.6
2022-10-21T01:17:01.148Z,8.6
2022-10-21T01:18:01.155Z,8.6
2022-10-21T01:19:01.553Z,8.6
2022-10-21T01:20:01.073Z,8.6
2022-10-21T01:21:01.794Z,8.6
2022-10-21T01:22:01.088Z,8.6
2022-10-21T01:23:01.069Z,8.7
2022-10-21T01:24:01.597Z,8.7
2022-10-21T01:25:02.068Z,8.7
2022-10-21T01:26:02.069Z,8.7
2022-10-21T01:27:01.105Z,8.7
2022-10-21T01:28:01.108Z,8.7
2022-10-21T01:29:01.129Z,8.7
2022-10-21T01:30:01.118Z,8.7
2022-10-21T01:31:01.151Z,8.8
2022-10-21T01:32:01.643Z,8.8
2022-10-21T01:33:01.300Z,8.8
2022-10-21T01:34:01.145Z,8.8
2022-10-21T01:35:01.183Z,8.8
2022-10-21T01:36:01.159Z,8.8
2022-10-21T01:37:04.532Z,8.8
2022-10-21T01:38:01.859Z,8.8
2022-10-21T01:39:02.616Z,8.9
2022-10-21T01:40:01.692Z,8.9
2022-10-21T01:41:02.102Z,8.9
2022-10-21T01:42:07.638Z,8.9
2022-10-21T01:43:01.122Z,8.9
2022-10-21T01:44:01.623Z,8.9
2022-10-21T01:45:01.120Z,9
2022-10-21T01:46:01.143Z,8.9
2022-10-21T01:47:10.300Z,9
2022-10-21T01:48:01.229Z,9
2022-10-21T01:49:01.547Z,9
2022-10-21T01:50:02.229Z,9
2022-10-21T01:51:01.181Z,9
2022-10-21T01:52:13.398Z,9
2022-10-21T01:53:01.086Z,9
2022-10-21T01:54:01.091Z,9
2022-10-21T01:55:01.068Z,9
2022-10-21T01:56:01.078Z,9
2022-10-21T01:57:15.762Z,9
2022-10-21T01:58:01.468Z,9
2022-10-21T01:59:01.105Z,9
2022-10-21T02:00:01.044Z,9
2022-10-21T02:01:01.187Z,9
2022-10-21T02:02:01.136Z,9.1
2022-10-21T02:03:01.126Z,9.1
2022-10-21T02:04:01.127Z,9.1
2022-10-21T02:05:01.137Z,9.1
2022-10-21T02:06:01.153Z,9.1
2022-10-21T02:07:01.146Z,9.1
2022-10-21T02:08:01.183Z,9.1
2022-10-21T02:09:01.167Z,9.1
2022-10-21T02:10:01.076Z,9.1
2022-10-21T02:11:01.057Z,9.2
2022-10-21T02:12:01.067Z,9.2
2022-10-21T02:13:00.681Z,9.1
2022-10-21T02:14:00.261Z,9.2
2022-10-21T02:14:59.856Z,9.2
2022-10-21T02:16:01.551Z,9.2
2022-10-21T02:17:01.352Z,9.3
2022-10-21T02:18:02.138Z,9.2
2022-10-21T02:19:01.689Z,9.2
2022-10-21T02:20:00.797Z,9.3
2022-10-21T02:21:01.624Z,9.3
2022-10-21T02:22:01.151Z,9.3
2022-10-21T02:23:01.157Z,9.3
2022-10-21T02:24:01.166Z,9.3
2022-10-21T02:25:01.226Z,9.3
2022-10-21T02:26:01.197Z,9.3
2022-10-21T02:27:01.080Z,9.3
2022-10-21T02:28:01.084Z,9.3
2022-10-21T02:29:01.117Z,9.3
2022-10-21T02:30:01.093Z,9.3
2022-10-21T02:31:01.133Z,9.3
2022-10-21T02:32:01.119Z,9.3
2022-10-21T02:33:00.791Z,9.3
2022-10-21T02:34:00.612Z,9.3
2022-10-21T02:35:00.275Z,9.4
2022-10-21T02:35:59.921Z,9.3
2022-10-21T02:36:59.597Z,9.4
2022-10-21T02:38:01.467Z,9.4
2022-10-21T02:39:02.188Z,9.4
2022-10-21T02:40:02.173Z,9.4
2022-10-21T02:41:02.005Z,9.4
2022-10-21T02:42:02.098Z,9.4
2022-10-21T02:43:01.467Z,9.4
2022-10-21T02:44:01.243Z,9.5
2022-10-21T02:45:01.145Z,9.5
2022-10-21T02:46:01.107Z,9.5
2022-10-21T02:47:01.180Z,9.5
2022-10-21T02:48:00.798Z,9.5
2022-10-21T02:49:00.485Z,9.5
2022-10-21T02:50:00.184Z,9.5
2022-10-21T02:50:59.905Z,9.5
2022-10-21T02:51:59.739Z,9.5
2022-10-21T02:53:01.925Z,9.5
2022-10-21T02:54:02.493Z,9.5
2022-10-21T02:55:01.161Z,9.5
2022-10-21T02:56:01.178Z,9.5
2022-10-21T02:57:01.787Z,9.5
2022-10-21T02:58:01.085Z,9.5
2022-10-21T02:59:01.066Z,9.5
2022-10-21T03:00:01.125Z,9.5
2022-10-21T03:01:01.186Z,9.5
2022-10-21T03:02:01.129Z,9.6
2022-10-21T03:03:01.102Z,9.6
2022-10-21T03:04:01.191Z,9.6
2022-10-21T03:05:01.436Z,9.6
2022-10-21T03:06:02.138Z,9.6
2022-10-21T03:07:01.133Z,9.6
2022-10-21T03:08:01.141Z,9.6
2022-10-21T03:09:01.225Z,9.6
2022-10-21T03:10:01.309Z,9.7
2022-10-21T03:11:01.162Z,9.7
2022-10-21T03:12:01.149Z,9.7
2022-10-21T03:13:01.273Z,9.7
2022-10-21T03:14:01.875Z,9.7
2022-10-21T03:15:02.616Z,9.7
2022-10-21T03:16:01.095Z,9.7
2022-10-21T03:17:01.095Z,9.7
2022-10-21T03:18:01.210Z,9.7
2022-10-21T03:19:01.258Z,9.7
2022-10-21T03:20:01.521Z,9.7
2022-10-21T03:21:01.236Z,9.7
2022-10-21T03:22:01.113Z,9.8
2022-10-21T03:23:03.553Z,9.8
2022-10-21T03:24:01.045Z,9.8
2022-10-21T03:25:01.143Z,9.8
2022-10-21T03:26:01.156Z,9.8
2022-10-21T03:27:01.148Z,9.8
2022-10-21T03:28:06.357Z,9.8
2022-10-21T03:29:01.067Z,9.8
2022-10-21T03:30:01.064Z,9.8
2022-10-21T03:31:01.080Z,9.8
2022-10-21T03:32:02.037Z,9.8
2022-10-21T03:33:08.471Z,9.8
2022-10-21T03:34:01.793Z,9.9
2022-10-21T03:35:01.390Z,9.9
2022-10-21T03:36:01.285Z,9.9
2022-10-21T03:37:01.439Z,9.9
2022-10-21T03:38:12.646Z,10
2022-10-21T03:39:02.784Z,10
2022-10-21T03:40:01.331Z,10
2022-10-21T03:41:02.582Z,10
2022-10-21T03:42:01.145Z,10
2022-10-21T03:43:15.445Z,10
2022-10-21T03:44:01.450Z,10
2022-10-21T03:45:01.062Z,10
2022-10-21T03:46:01.245Z,10
2022-10-21T03:47:01.085Z,10
2022-10-21T03:48:01.067Z,10
2022-10-21T03:49:04.248Z,10
2022-10-21T03:50:01.468Z,10
2022-10-21T03:51:01.051Z,10.1
2022-10-21T03:52:01.093Z,10.1
2022-10-21T03:53:02.418Z,10.1
2022-10-21T03:54:01.035Z,10.1
2022-10-21T03:55:01.204Z,10.1
2022-10-21T03:56:01.239Z,10.1
2022-10-21T03:57:01.236Z,10.1
2022-10-21T03:58:01.255Z,10.1
2022-10-21T03:59:01.151Z,10.1
2022-10-21T04:00:01.222Z,10.1
2022-10-21T04:01:01.062Z,10.1
2022-10-21T04:02:01.131Z,10.1
2022-10-21T04:03:01.083Z,10.1
2022-10-21T04:04:01.317Z,10.1
2022-10-21T04:05:01.487Z,10.2
2022-10-21T04:06:01.219Z,10.2
2022-10-21T04:07:01.921Z,10.2
2022-10-21T04:08:03.065Z,10.2
2022-10-21T04:09:01.213Z,10.2
2022-10-21T04:10:01.549Z,10.2
2022-10-21T04:11:01.136Z,10.2
2022-10-21T04:12:01.165Z,10.2
2022-10-21T04:13:01.166Z,10.2
2022-10-21T04:14:02.193Z,10.2
2022-10-21T04:15:01.154Z,10.2
2022-10-21T04:16:01.161Z,10.2
2022-10-21T04:17:07.455Z,10.2
2022-10-21T04:18:01.079Z,10.3
2022-10-21T04:19:01.062Z,10.3
2022-10-21T04:20:01.092Z,10.3
2022-10-21T04:21:01.085Z,10.3
2022-10-21T04:22:01.082Z,10.3
2022-10-21T04:23:01.107Z,10.3
2022-10-21T04:24:01.163Z,10.3
2022-10-21T04:25:03.943Z,10.3
2022-10-21T04:26:02.718Z,10.3
2022-10-21T04:27:01.150Z,10.3
2022-10-21T04:28:01.129Z,10.3
2022-10-21T04:29:01.172Z,10.3
2022-10-21T04:30:01.315Z,10.3
2022-10-21T04:31:01.692Z,10.3
2022-10-21T04:32:02.658Z,10.3
2022-10-21T04:33:02.061Z,10.3
2022-10-21T04:34:01.863Z,10.3
2022-10-21T04:35:01.469Z,10.3
2022-10-21T04:36:01.184Z,10.3
2022-10-21T04:37:04.131Z,10.3
2022-10-21T04:38:01.145Z,10.3
2022-10-21T04:39:01.401Z,10.3
2022-10-21T04:40:01.326Z,10.3
2022-10-21T04:41:02.349Z,10.3
2022-10-21T04:42:01.430Z,10.3
2022-10-21T04:43:02.045Z,10.3
2022-10-21T04:44:02.143Z,10.3
2022-10-21T04:45:01.168Z,10.3
2022-10-21T04:46:01.489Z,10.3
2022-10-21T04:47:01.045Z,10.3
2022-10-21T04:48:01.169Z,10.3
2022-10-21T04:49:01.181Z,10.3
2022-10-21T04:50:01.198Z,10.3
2022-10-21T04:51:01.885Z,10.3
2022-10-21T04:52:01.967Z,10.4
2022-10-21T04:53:01.088Z,10.4
2022-10-21T04:54:01.105Z,10.4
2022-10-21T04:55:01.101Z,10.4
2022-10-21T04:56:01.105Z,10.4
2022-10-21T04:57:01.122Z,10.4
2022-10-21T04:58:01.451Z,10.4
2022-10-21T04:59:01.267Z,10.4
2022-10-21T05:00:01.310Z,10.4
2022-10-21T05:01:01.222Z,10.4
2022-10-21T05:03:01.733Z,10.4
2022-10-21T05:04:02.911Z,10.4
2022-10-21T05:05:01.735Z,10.4
2022-10-21T05:06:01.307Z,10.4
2022-10-21T05:07:01.232Z,10.4
2022-10-21T05:08:01.223Z,10.4
2022-10-21T05:09:05.189Z,10.4
2022-10-21T05:10:01.608Z,10.4
2022-10-21T05:11:01.023Z,10.4
2022-10-21T05:12:00.866Z,10.4
2022-10-21T05:13:01.652Z,10.4
2022-10-21T05:14:07.366Z,10.4
2022-10-21T05:15:01.311Z,10.4
2022-10-21T05:16:01.945Z,10.4
2022-10-21T05:17:01.027Z,10.4
2022-10-21T05:18:01.185Z,10.4
2022-10-21T05:19:10.942Z,10.4
2022-10-21T05:20:01.841Z,10.4
2022-10-21T05:21:00.636Z,10.4
2022-10-21T05:22:00.240Z,10.4
2022-10-21T05:22:59.928Z,10.4
2022-10-21T05:24:15.247Z,10.4
2022-10-21T05:25:01.265Z,10.4
2022-10-21T05:26:01.177Z,10.4
2022-10-21T05:27:01.766Z,10.4
2022-10-21T05:28:01.448Z,10.4
2022-10-21T05:29:02.124Z,10.4
2022-10-21T05:30:04.829Z,10.4
2022-10-21T05:31:02.155Z,10.4
2022-10-21T05:32:02.107Z,10.3
2022-10-21T05:33:02.043Z,10.4
2022-10-21T05:34:01.367Z,10.4
2022-10-21T05:35:01.486Z,10.4
2022-10-21T05:36:02.068Z,10.4
2022-10-21T05:37:02.082Z,10.4
2022-10-21T05:38:01.058Z,10.4
2022-10-21T05:39:01.165Z,10.4
2022-10-21T05:40:01.287Z,10.4
2022-10-21T05:41:01.072Z,10.4
2022-10-21T05:42:01.203Z,10.4
2022-10-21T05:43:01.238Z,10.4
2022-10-21T05:44:01.489Z,10.4
2022-10-21T05:45:01.110Z,10.4
2022-10-21T05:46:01.868Z,10.5
2022-10-21T05:47:01.470Z,10.5
2022-10-21T05:48:01.506Z,10.5
2022-10-21T05:49:01.267Z,10.5
2022-10-21T05:50:01.288Z,10.5
2022-10-21T05:51:01.959Z,10.5
2022-10-21T05:52:01.265Z,10.5
2022-10-21T05:53:01.080Z,10.5
2022-10-21T05:54:01.606Z,10.5
2022-10-21T05:55:01.161Z,10.5
2022-10-21T05:56:01.209Z,10.5
2022-10-21T05:57:01.075Z,10.5
2022-10-21T05:58:01.095Z,10.5
2022-10-21T05:59:01.107Z,10.5
2022-10-21T06:00:01.462Z,10.5
2022-10-21T06:01:01.184Z,10.5
2022-10-21T06:02:02.066Z,10.6
2022-10-21T06:03:01.951Z,10.6
2022-10-21T06:04:01.046Z,10.6
2022-10-21T06:05:01.167Z,10.6
2022-10-21T06:06:01.319Z,10.6
2022-10-21T06:07:01.534Z,10.6
2022-10-21T06:08:01.602Z,10.6
2022-10-21T06:09:02.356Z,10.6
2022-10-21T06:10:02.062Z,10.6
2022-10-21T06:11:02.702Z,10.7
2022-10-21T06:12:01.900Z,10.7
2022-10-21T06:13:01.727Z,10.7
2022-10-21T06:14:01.162Z,10.7
2022-10-21T06:15:01.560Z,10.7
2022-10-21T06:16:01.660Z,10.7
2022-10-21T06:17:02.297Z,10.7
2022-10-21T06:18:01.139Z,10.7
2022-10-21T06:19:01.583Z,10.7
2022-10-21T06:20:01.403Z,10.7
2022-10-21T06:21:02.116Z,10.7
2022-10-21T06:22:01.278Z,10.7
2022-10-21T06:23:01.292Z,10.7
2022-10-21T06:24:01.310Z,10.8
2022-10-21T06:25:04.094Z,10.8
2022-10-21T06:26:01.163Z,10.8
2022-10-21T06:27:01.131Z,10.8
2022-10-21T06:28:01.528Z,10.8
2022-10-21T06:29:01.109Z,10.8
2022-10-21T06:30:01.084Z,10.8
2022-10-21T06:31:01.099Z,10.8
2022-10-21T06:32:01.225Z,10.8
2022-10-21T06:33:01.406Z,10.8
2022-10-21T06:34:01.425Z,10.9
2022-10-21T06:35:01.257Z,10.9
2022-10-21T06:36:01.288Z,10.9
2022-10-21T06:37:02.035Z,10.9
2022-10-21T06:38:01.175Z,11
2022-10-21T06:39:01.158Z,11
2022-10-21T06:40:01.155Z,11
2022-10-21T06:41:01.050Z,11
2022-10-21T06:42:01.473Z,11
2022-10-21T06:43:01.294Z,11
2022-10-21T06:44:01.350Z,11
2022-10-21T06:45:01.697Z,11.1
2022-10-21T06:46:01.088Z,11.1
2022-10-21T06:47:01.287Z,11.1
2022-10-21T06:48:01.563Z,11.1
2022-10-21T06:49:01.919Z,11.1
2022-10-21T06:50:05.595Z,11.1
2022-10-21T06:51:01.221Z,11.1
2022-10-21T06:52:01.512Z,11.1
2022-10-21T06:53:01.238Z,11.1
2022-10-21T06:54:01.180Z,11.1
2022-10-21T06:55:08.609Z,11.1
2022-10-21T06:56:00.802Z,11.1
2022-10-21T06:57:01.148Z,11.1
2022-10-21T06:58:01.208Z,11.1
2022-10-21T06:59:01.072Z,11.1
2022-10-21T07:00:11.453Z,11.1
2022-10-21T07:01:01.926Z,11.2
2022-10-21T07:02:01.460Z,11.2
2022-10-21T07:03:01.240Z,11.2
2022-10-21T07:04:01.691Z,11.2
2022-10-21T07:05:14.634Z,11.2
2022-10-21T07:06:01.118Z,11.2
2022-10-21T07:07:01.134Z,11.2
2022-10-21T07:08:01.254Z,11.3
2022-10-21T07:09:01.642Z,11.3
2022-10-21T07:10:16.934Z,11.3
2022-10-21T07:11:01.640Z,11.3
2022-10-21T07:12:01.169Z,11.3
2022-10-21T07:13:01.159Z,11.3
2022-10-21T07:14:01.070Z,11.3
2022-10-21T07:15:01.073Z,11.3
2022-10-21T07:16:00.795Z,11.3
2022-10-21T07:17:00.769Z,11.3
2022-10-21T07:18:00.409Z,11.3
2022-10-21T07:19:00.163Z,11.3
2022-10-21T07:19:59.863Z,11.3
2022-10-21T07:21:01.495Z,11.3
2022-10-21T07:22:01.117Z,11.3
2022-10-21T07:23:01.105Z,11.4
2022-10-21T07:24:01.124Z,11.4
2022-10-21T07:26:01.914Z,11.4
2022-10-21T07:27:01.239Z,11.4
2022-10-21T07:28:01.146Z,11.4
2022-10-21T07:29:01.319Z,11.5
2022-10-21T07:30:01.185Z,11.5
2022-10-21T07:31:01.990Z,11.5
2022-10-21T07:32:02.601Z,11.5
2022-10-21T07:33:01.524Z,11.5
2022-10-21T07:34:01.296Z,11.5
2022-10-21T07:35:01.177Z,11.5
2022-10-21T07:36:00.905Z,11.5
2022-10-21T07:37:01.106Z,11.5
2022-10-21T07:38:01.126Z,11.5
2022-10-21T07:39:01.119Z,11.5
2022-10-21T07:40:01.130Z,11.5
2022-10-21T07:41:01.377Z,11.5
2022-10-21T07:42:01.540Z,11.5
2022-10-21T07:43:02.386Z,11.6
2022-10-21T07:44:01.154Z,11.5
2022-10-21T07:45:01.971Z,11.6
2022-10-21T07:46:04.415Z,11.6
2022-10-21T07:47:01.889Z,11.6
2022-10-21T07:48:01.664Z,11.6
2022-10-21T07:49:01.238Z,11.6
2022-10-21T07:50:01.306Z,11.7
2022-10-21T07:51:04.308Z,11.7
2022-10-21T07:52:01.255Z,11.7
2022-10-21T07:53:12.392Z,11.8
2022-10-21T07:54:01.113Z,11.8
2022-10-21T07:55:01.159Z,11.8
2022-10-21T07:56:01.474Z,11.8
2022-10-21T07:57:01.257Z,11.8
2022-10-21T07:58:02.097Z,11.8
2022-10-21T07:59:02.057Z,11.9
2022-10-21T08:00:01.230Z,11.9
2022-10-21T08:01:01.688Z,12
2022-10-21T08:02:01.174Z,12
2022-10-21T08:03:01.812Z,12
2022-10-21T08:04:01.425Z,12
2022-10-21T08:05:01.102Z,12
2022-10-21T08:06:01.080Z,12.1
2022-10-21T08:07:01.065Z,12.1
2022-10-21T08:08:01.384Z,12.1
2022-10-21T08:09:01.638Z,12.1
2022-10-21T08:10:01.566Z,12.1
2022-10-21T08:11:01.151Z,12.1
2022-10-21T08:12:01.564Z,12.1
2022-10-21T08:13:01.122Z,12.2
2022-10-21T08:14:00.818Z,12.1
2022-10-21T08:15:00.411Z,12.2
2022-10-21T08:16:00.173Z,12.2
2022-10-21T08:17:01.567Z,12.2
2022-10-21T08:18:01.043Z,12.2
2022-10-21T08:19:01.075Z,12.3
2022-10-21T08:20:01.065Z,12.3
2022-10-21T08:21:01.073Z,12.3
2022-10-21T08:22:01.074Z,12.3
2022-10-21T08:23:01.141Z,12.3
2022-10-21T08:24:01.335Z,12.3
2022-10-21T08:25:01.192Z,12.4
2022-10-21T08:26:01.481Z,12.4
2022-10-21T08:27:01.107Z,12.4
2022-10-21T08:28:01.116Z,12.4
2022-10-21T08:29:01.133Z,12.4
2022-10-21T08:30:01.123Z,12.4
2022-10-21T08:31:05.215Z,12.3
2022-10-21T08:32:01.592Z,12.3
2022-10-21T08:33:01.529Z,12.3
2022-10-21T08:34:01.105Z,12.3
2022-10-21T08:35:00.724Z,12.3
2022-10-21T08:36:08.415Z,12.4
2022-10-21T08:37:02.083Z,12.4
2022-10-21T08:38:01.984Z,12.4
2022-10-21T08:39:01.073Z,12.4
2022-10-21T08:40:01.093Z,12.4
2022-10-21T08:41:10.997Z,12.4
2022-10-21T08:42:01.494Z,12.5
2022-10-21T08:43:01.136Z,12.5
2022-10-21T08:44:01.347Z,12.5
2022-10-21T08:45:01.282Z,12.5
2022-10-21T08:46:13.985Z,12.5
2022-10-21T08:47:01.221Z,12.5
2022-10-21T08:48:01.164Z,12.5
2022-10-21T08:49:01.340Z,12.5
2022-10-21T08:50:01.316Z,12.5
2022-10-21T08:51:16.110Z,12.5
2022-10-21T08:52:02.073Z,12.5
2022-10-21T08:53:01.074Z,12.5
2022-10-21T08:54:01.185Z,12.5
2022-10-21T08:55:01.169Z,12.5
2022-10-21T08:56:01.207Z,12.5
2022-10-21T08:57:00.794Z,12.5
2022-10-21T08:58:00.481Z,12.5
2022-10-21T08:59:00.188Z,12.5
2022-10-21T08:59:59.753Z,12.5
2022-10-21T09:01:01.786Z,12.5
2022-10-21T09:02:01.075Z,12.5
2022-10-21T09:03:01.229Z,12.5
2022-10-21T09:04:01.100Z,12.5
2022-10-21T09:05:01.293Z,12.5
2022-10-21T09:06:01.154Z,12.5
2022-10-21T09:07:01.218Z,12.5
2022-10-21T09:08:01.474Z,12.5
2022-10-21T09:09:01.305Z,12.5
2022-10-21T09:10:01.979Z,12.6
2022-10-21T09:11:01.071Z,12.6
2022-10-21T09:12:00.773Z,12.6
2022-10-21T09:13:00.414Z,12.7
2022-10-21T09:14:00.314Z,12.7
2022-10-21T09:15:00.286Z,12.7
2022-10-21T09:15:59.982Z,12.8
2022-10-21T09:16:59.681Z,12.8
2022-10-21T09:18:01.839Z,12.8
2022-10-21T09:19:01.459Z,12.8
2022-10-21T09:20:02.581Z,12.8
2022-10-21T09:21:04.699Z,12.8
2022-10-21T09:22:10.827Z,12.8
2022-10-21T09:23:02.387Z,12.8
2022-10-21T09:24:02.309Z,12.8
2022-10-21T09:25:01.063Z,12.8
2022-10-21T09:26:01.323Z,12.8
2022-10-21T09:27:02.010Z,12.8
2022-10-21T09:28:01.318Z,12.9
2022-10-21T09:29:01.109Z,13
2022-10-21T09:30:01.548Z,13
2022-10-21T09:31:01.173Z,13
2022-10-21T09:32:02.660Z,12.9
2022-10-21T09:33:02.108Z,12.9
2022-10-21T09:34:01.438Z,12.9
2022-10-21T09:35:02.712Z,12.9
2022-10-21T09:36:01.324Z,12.8
2022-10-21T09:37:01.847Z,12.8
2022-10-21T09:38:02.601Z,12.8
2022-10-21T09:39:01.913Z,12.8
2022-10-21T09:40:01.532Z,12.8
2022-10-21T09:41:01.292Z,12.8
2022-10-21T09:42:03.802Z,12.8
2022-10-21T09:43:01.133Z,12.8
2022-10-21T09:44:01.058Z,12.8
2022-10-21T09:45:01.844Z,12.8
2022-10-21T09:46:01.132Z,12.8
2022-10-21T09:47:01.597Z,12.8
2022-10-21T09:48:01.134Z,12.9
2022-10-21T09:49:36.312Z,12.9
2022-10-21T09:50:07.445Z,13
2022-10-21T09:51:01.861Z,13
2022-10-21T09:52:01.771Z,13
2022-10-21T09:53:01.449Z,13
2022-10-21T09:54:01.055Z,13
2022-10-21T09:55:01.455Z,13
2022-10-21T09:56:01.289Z,13
2022-10-21T09:57:00.763Z,13
2022-10-21T09:58:00.478Z,13
2022-10-21T09:59:02.922Z,13.1
2022-10-21T10:00:01.136Z,13.1
2022-10-21T10:01:01.094Z,13.1
2022-10-21T10:02:01.195Z,13.1
2022-10-21T10:03:01.566Z,13.2
2022-10-21T10:04:02.302Z,13.2
2022-10-21T10:05:01.142Z,13.2
2022-10-21T10:06:00.809Z,13.2
2022-10-21T10:07:04.569Z,13.2
2022-10-21T10:08:01.892Z,13.2
2022-10-21T10:09:01.734Z,13.3
2022-10-21T10:10:01.374Z,13.3
2022-10-21T10:11:01.052Z,13.3
2022-10-21T10:12:06.376Z,13.4
2022-10-21T10:13:01.193Z,13.5
2022-10-21T10:14:02.256Z,13.5
2022-10-21T10:15:01.983Z,13.6
2022-10-21T10:16:01.406Z,13.6
2022-10-21T10:17:09.297Z,13.6
2022-10-21T10:18:02.524Z,13.7
2022-10-21T10:19:01.101Z,13.8
2022-10-21T10:20:01.175Z,13.8
2022-10-21T10:21:01.459Z,13.8
2022-10-21T10:22:11.988Z,13.8
2022-10-21T10:23:01.140Z,13.8
2022-10-21T10:24:01.148Z,13.8
2022-10-21T10:25:01.259Z,13.8
2022-10-21T10:26:01.172Z,13.9
2022-10-21T10:27:14.021Z,13.9
2022-10-21T10:28:01.055Z,13.9
2022-10-21T10:29:01.066Z,14
2022-10-21T10:30:01.110Z,14
2022-10-21T10:31:01.086Z,14
2022-10-21T10:32:16.194Z,14.1
2022-10-21T10:33:02.145Z,14.1
2022-10-21T10:34:02.158Z,14.1
2022-10-21T10:35:01.281Z,14.1
2022-10-21T10:36:05.160Z,14.1
2022-10-21T10:37:01.121Z,14.1
2022-10-21T10:38:01.144Z,14
2022-10-21T10:39:01.145Z,14
2022-10-21T10:40:01.135Z,14.1
2022-10-21T10:41:01.408Z,14.1
2022-10-21T10:42:01.678Z,14.1
2022-10-21T10:43:01.083Z,14.1
2022-10-21T10:44:01.081Z,14.1
2022-10-21T10:45:01.073Z,14.1
2022-10-21T10:46:01.085Z,14.1
2022-10-21T10:47:01.113Z,14.1
2022-10-21T10:48:01.094Z,14.1
2022-10-21T10:49:01.092Z,14.1
2022-10-21T10:50:01.128Z,14.1
2022-10-21T10:51:01.137Z,14.1
2022-10-21T10:52:01.118Z,14.1
2022-10-21T10:53:01.753Z,14.1
2022-10-21T10:54:01.730Z,14.1
2022-10-21T10:55:01.783Z,14.1
2022-10-21T10:56:01.815Z,14.1
2022-10-21T10:57:01.967Z,14.1
2022-10-21T10:58:10.781Z,14.1
2022-10-21T10:59:01.059Z,14.1
2022-10-21T11:00:01.068Z,14.1
2022-10-21T11:01:01.121Z,14.1
2022-10-21T11:02:01.145Z,14.1
2022-10-21T11:03:01.686Z,14.1
2022-10-21T11:04:01.082Z,14.1
2022-10-21T11:05:01.127Z,14.1
2022-10-21T11:06:01.238Z,14.1
2022-10-21T11:07:01.040Z,14.1
2022-10-21T11:08:01.124Z,14.1
2022-10-21T11:09:01.090Z,14.1
2022-10-21T11:10:01.132Z,14.2
2022-10-21T11:11:01.147Z,14.2
2022-10-21T11:12:01.150Z,14.2
2022-10-21T11:13:01.256Z,14.2
2022-10-21T11:14:02.086Z,14.2
2022-10-21T11:15:02.000Z,14.2
2022-10-21T11:16:01.070Z,14.2
2022-10-21T11:17:01.393Z,14.3
2022-10-21T11:18:17.129Z,14.3
2022-10-21T11:19:01.089Z,14.3
2022-10-21T11:20:01.348Z,14.3
2022-10-21T11:21:01.486Z,14.3
2022-10-21T11:22:05.801Z,14.3
2022-10-21T11:23:01.152Z,14.3
2022-10-21T11:24:01.125Z,14.3
2022-10-21T11:25:01.043Z,14.3
2022-10-21T11:26:01.126Z,14.4
2022-10-21T11:27:01.136Z,14.4
2022-10-21T11:28:01.142Z,14.4
2022-10-21T11:29:04.726Z,14.4
2022-10-21T11:30:01.547Z,14.4
2022-10-21T11:31:01.253Z,14.4
2022-10-21T11:32:11.685Z,14.4
2022-10-21T11:33:01.760Z,14.3
2022-10-21T11:34:01.769Z,14.4
2022-10-21T11:35:01.383Z,14.4
2022-10-21T11:36:01.104Z,14.4
2022-10-21T11:37:01.110Z,14.4
2022-10-21T11:38:01.490Z,14.4
2022-10-21T11:39:01.222Z,14.4
2022-10-21T11:40:01.128Z,14.4
2022-10-21T11:41:01.098Z,14.4
2022-10-21T11:42:01.162Z,14.4
2022-10-21T11:43:01.136Z,14.4
2022-10-21T11:44:01.200Z,14.4
2022-10-21T11:45:01.051Z,14.4
2022-10-21T11:46:01.085Z,14.3
2022-10-21T11:47:01.272Z,14.3
2022-10-21T11:48:01.933Z,14.3
2022-10-21T11:49:02.325Z,14.3
2022-10-21T11:50:01.809Z,14.3
2022-10-21T11:51:05.287Z,14.3
2022-10-21T11:52:01.084Z,14.3
2022-10-21T11:53:01.100Z,14.3
2022-10-21T11:54:01.109Z,14.3
2022-10-21T11:55:10.068Z,14.4
2022-10-21T11:56:01.644Z,14.4
2022-10-21T11:57:01.127Z,14.3
2022-10-21T11:58:03.546Z,14.4
2022-10-21T11:59:01.145Z,14.4
2022-10-21T12:00:01.147Z,14.4
2022-10-21T12:01:01.160Z,14.4
2022-10-21T12:02:04.188Z,14.4
2022-10-21T12:03:05.972Z,14.5
2022-10-21T12:04:01.568Z,14.5
2022-10-21T12:05:01.073Z,14.5
2022-10-21T12:06:01.241Z,14.5
2022-10-21T12:07:01.951Z,14.5
2022-10-21T12:08:08.407Z,14.5
2022-10-21T12:09:01.092Z,14.5
2022-10-21T12:10:01.123Z,14.5
2022-10-21T12:11:01.143Z,14.5
2022-10-21T12:12:01.210Z,14.5
2022-10-21T12:13:11.734Z,14.5
2022-10-21T12:14:02.333Z,14.5
2022-10-21T12:15:01.320Z,14.5
2022-10-21T12:16:01.959Z,14.5
2022-10-21T12:17:01.058Z,14.5
2022-10-21T12:18:15.985Z,14.5
2022-10-21T12:19:01.177Z,14.5
2022-10-21T12:20:01.071Z,14.5
2022-10-21T12:21:01.238Z,14.5
2022-10-21T12:22:01.237Z,14.5
2022-10-21T12:23:01.094Z,14.5
2022-10-21T12:24:01.348Z,14.5
2022-10-21T12:25:01.190Z,14.5
2022-10-21T12:26:01.154Z,14.5
2022-10-21T12:27:01.454Z,14.5
2022-10-21T12:28:01.270Z,14.5
2022-10-21T12:29:02.060Z,14.5
2022-10-21T12:30:01.131Z,14.5
2022-10-21T12:31:01.135Z,14.5
2022-10-21T12:32:01.155Z,14.5
2022-10-21T12:33:01.149Z,14.5
2022-10-21T12:34:01.157Z,14.5
2022-10-21T12:35:01.055Z,14.5
2022-10-21T12:36:01.149Z,14.4
2022-10-21T12:37:00.773Z,14.4
2022-10-21T12:38:01.244Z,14.5
2022-10-21T12:39:02.139Z,14.4
2022-10-21T12:40:01.087Z,14.4
2022-10-21T12:41:01.228Z,14.4
2022-10-21T12:42:01.220Z,14.4
2022-10-21T12:43:01.121Z,14.4
2022-10-21T12:44:01.127Z,14.4
2022-10-21T12:45:01.120Z,14.4
2022-10-21T12:46:01.184Z,14.4
2022-10-21T12:47:01.345Z,14.4
2022-10-21T12:48:01.140Z,14.4
2022-10-21T12:49:01.601Z,14.3
2022-10-21T12:50:01.973Z,14.3
2022-10-21T12:51:01.764Z,14.3
2022-10-21T12:52:01.132Z,14.3
2022-10-21T12:53:01.087Z,14.3
2022-10-21T12:54:01.091Z,14.3
2022-10-21T12:55:01.109Z,14.3
2022-10-21T12:56:01.409Z,14.3
2022-10-21T12:57:01.449Z,14.3
2022-10-21T12:58:00.778Z,14.3
2022-10-21T12:59:00.369Z,14.3
2022-10-21T12:59:59.976Z,14.3
2022-10-21T13:00:59.817Z,14.3
2022-10-21T13:02:01.833Z,14.3
2022-10-21T13:03:01.288Z,14.3
2022-10-21T13:04:01.345Z,14.3
2022-10-21T13:05:02.049Z,14.3
2022-10-21T13:06:01.344Z,14.3
2022-10-21T13:07:02.067Z,14.3
2022-10-21T13:08:02.065Z,14.3
2022-10-21T13:09:01.366Z,14.2
2022-10-21T13:10:01.202Z,14.2
2022-10-21T13:11:01.591Z,14.2
2022-10-21T13:12:01.121Z,14.3
2022-10-21T13:13:01.100Z,14.2
2022-10-21T13:14:01.115Z,14.2
2022-10-21T13:15:01.434Z,14.2
2022-10-21T13:16:01.686Z,14.2
2022-10-21T13:17:01.237Z,14.2
2022-10-21T13:18:01.581Z,14.2
2022-10-21T13:19:01.377Z,14.1
2022-10-21T13:20:01.153Z,14.1
2022-10-21T13:21:01.139Z,14.1
2022-10-21T13:22:01.163Z,14.1
2022-10-21T13:23:03.677Z,14.1
2022-10-21T13:24:01.451Z,14.1
2022-10-21T13:25:01.086Z,14.1
2022-10-21T13:26:01.506Z,14.1
2022-10-21T13:27:01.082Z,14.1
2022-10-21T13:28:01.084Z,14.1
2022-10-21T13:29:01.108Z,14.1
2022-10-21T13:30:01.514Z,14.1
2022-10-21T13:31:00.903Z,14
2022-10-21T13:32:01.195Z,14